createdAt,value
2022-10-11T00:02:35.666Z,95722.47
2022-10-11T00:05:39.408Z,95721.69
2022-10-11T00:08:42.382Z,95722.47
2022-10-11T00:11:45.405Z,95722.72
2022-10-11T00:14:48.434Z,95734.16
2022-10-11T00:17:52.815Z,95730.47
2022-10-11T00:21:03.303Z,95719.03
2022-10-11T00:24:07.273Z,95721.94
2022-10-11T00:27:11.471Z,95722.47
2022-10-11T00:30:15.007Z,95714.75
2022-10-11T00:33:19.415Z,95718.19
2022-10-11T00:36:23.118Z,95721.16
2022-10-11T00:39:26.115Z,95716.91
2022-10-11T00:42:29.551Z,95715.56
2022-10-11T00:46:01.909Z,95717.72
2022-10-11T00:49:13.915Z,95710.53
2022-10-11T00:52:21.911Z,95704.94
2022-10-11T00:55:31.375Z,95696.16
2022-10-11T00:58:36.677Z,95703.59
2022-10-11T01:01:39.790Z,95706.00
2022-10-11T01:04:44.727Z,95699.59
2022-10-11T01:07:48.969Z,95695.38
2022-10-11T01:10:52.678Z,95706.50
2022-10-11T01:14:15.993Z,95696.16
2022-10-11T01:17:26.989Z,95692.69
2022-10-11T01:20:41.733Z,95698.03
2022-10-11T01:24:17.002Z,95690.84
2022-10-11T01:27:42.327Z,95694.56
2022-10-11T01:30:47.690Z,95688.97
2022-10-11T01:33:56.104Z,95683.13
2022-10-11T01:37:05.365Z,95683.13
2022-10-11T01:40:12.585Z,95682.84
2022-10-11T01:43:17.809Z,95678.31
2022-10-11T01:46:23.052Z,95678.91
2022-10-11T01:49:26.180Z,95680.75
2022-10-11T01:52:31.400Z,95688.53
2022-10-11T01:55:43.862Z,95681.34
2022-10-11T01:59:03.540Z,95682.91
2022-10-11T02:02:19.935Z,95680.75
2022-10-11T02:05:31.405Z,95685.56
2022-10-11T02:08:40.163Z,95686.66
2022-10-11T02:11:43.407Z,95696.22
2022-10-11T02:14:50.720Z,95691.69
2022-10-11T02:17:58.339Z,95687.72
2022-10-11T02:24:11.747Z,95678.66
2022-10-11T02:27:17.716Z,95672.56
2022-10-11T02:30:21.288Z,95678.09
2022-10-11T02:33:29.354Z,95677.09
2022-10-11T02:36:38.792Z,95677.09
2022-10-11T02:39:46.122Z,95676.28
2022-10-11T02:42:53.752Z,95673.13
2022-10-11T02:46:00.962Z,95673.34
2022-10-11T02:49:05.653Z,95670.19
2022-10-11T02:52:08.795Z,95669.69
2022-10-11T02:55:13.015Z,95664.56
2022-10-11T02:58:16.042Z,95660.84
2022-10-11T03:01:19.122Z,95669.38
2022-10-11T03:04:23.721Z,95668.03
2022-10-11T03:07:26.771Z,95657.38
2022-10-11T03:10:29.796Z,95661.84
2022-10-11T03:13:32.781Z,95661.03
2022-10-11T03:16:35.791Z,95650.38
2022-10-11T03:19:40.154Z,95654.34
2022-10-11T03:22:43.193Z,95653.00
2022-10-11T03:25:46.973Z,95652.72
2022-10-11T03:28:50.064Z,95645.53
2022-10-11T03:31:53.089Z,95647.13
2022-10-11T03:34:57.765Z,95643.38
2022-10-11T03:38:00.788Z,95649.78
2022-10-11T03:41:03.941Z,95643.88
2022-10-11T03:44:07.011Z,95647.44
2022-10-11T03:47:10.672Z,95638.25
2022-10-11T03:50:15.043Z,95645.22
2022-10-11T03:53:18.322Z,95643.09
2022-10-11T03:56:21.301Z,95635.97
2022-10-11T03:59:24.457Z,95637.84
2022-10-11T04:02:27.428Z,95637.56
2022-10-11T04:05:31.970Z,95632.25
2022-10-11T04:08:35.062Z,95640.56
2022-10-11T04:11:38.302Z,95636.47
2022-10-11T04:14:41.531Z,95644.59
2022-10-11T04:17:44.505Z,95640.53
2022-10-11T04:20:48.931Z,95633.31
2022-10-11T04:23:51.987Z,95640.44
2022-10-11T04:26:55.220Z,95641.50
2022-10-11T04:29:58.249Z,95637.47
2022-10-11T04:33:01.252Z,95641.44
2022-10-11T04:36:06.740Z,95636.09
2022-10-11T04:39:10.632Z,95640.63
2022-10-11T04:42:13.784Z,95638.75
2022-10-11T04:45:16.866Z,95641.44
2022-10-11T04:48:19.977Z,95636.09
2022-10-11T04:51:25.070Z,95637.47
2022-10-11T04:54:28.673Z,95633.72
2022-10-11T04:57:31.868Z,95634.53
2022-10-11T05:00:34.872Z,95634.81
2022-10-11T05:03:38.696Z,95641.72
2022-10-11T05:06:43.123Z,95645.16
2022-10-11T05:09:46.143Z,95642.50
2022-10-11T05:12:49.357Z,95637.47
2022-10-11T05:15:52.429Z,95636.41
2022-10-11T05:18:55.528Z,95639.84
2022-10-11T05:21:59.911Z,95640.63
2022-10-11T05:25:02.966Z,95650.41
2022-10-11T05:28:06.491Z,95651.50
2022-10-11T05:31:09.607Z,95654.16
2022-10-11T05:34:12.670Z,95654.16
2022-10-11T05:37:17.042Z,95661.06
2022-10-11T05:40:20.041Z,95658.41
2022-10-11T05:43:23.053Z,95664.22
2022-10-11T05:46:26.094Z,95663.44
2022-10-11T05:49:29.295Z,95657.81
2022-10-11T05:52:34.053Z,95660.78
2022-10-11T05:55:38.466Z,95666.09
2022-10-11T05:58:41.466Z,95677.53
2022-10-11T06:01:44.565Z,95662.66
2022-10-11T06:04:47.952Z,95663.44
2022-10-11T06:07:52.604Z,95661.56
2022-10-11T06:10:55.552Z,95665.31
2022-10-11T06:13:59.565Z,95647.19
2022-10-11T06:17:02.606Z,95653.88
2022-10-11T06:20:06.437Z,95639.78
2022-10-11T06:23:10.881Z,95633.16
2022-10-11T06:26:13.840Z,95632.66
2022-10-11T06:29:16.913Z,95647.53
2022-10-11T06:32:20.202Z,95655.53
2022-10-11T06:35:23.255Z,95653.66
2022-10-11T06:38:27.735Z,95652.84
2022-10-11T06:41:31.771Z,95651.28
2022-10-11T06:44:34.710Z,95657.09
2022-10-11T06:50:59.131Z,95668.81
2022-10-11T06:54:05.341Z,95670.69
2022-10-11T07:00:12.872Z,95671.19
2022-10-11T07:03:16.023Z,95677.59
2022-10-11T07:09:24.007Z,95676.81
2022-10-11T07:12:27.017Z,95665.66
2022-10-11T07:15:30.092Z,95665.09
2022-10-11T07:21:36.875Z,95670.41
2022-10-11T07:24:41.277Z,95668.03
2022-10-11T07:27:44.240Z,95669.63
2022-10-11T07:30:47.285Z,95674.94
2022-10-11T07:33:50.502Z,95672.28
2022-10-11T07:36:53.488Z,95670.41
2022-10-11T07:39:57.882Z,95670.41
2022-10-11T07:43:01.011Z,95670.69
2022-10-11T07:46:05.388Z,95668.03
2022-10-11T07:49:08.651Z,95674.94
2022-10-11T07:52:11.671Z,95669.63
2022-10-11T07:55:16.170Z,95672.78
2022-10-11T07:58:19.115Z,95667.47
2022-10-11T08:01:22.878Z,95672.78
2022-10-11T08:04:25.913Z,95665.88
2022-10-11T08:07:30.005Z,95661.84
2022-10-11T08:10:40.349Z,95665.59
2022-10-11T08:13:43.403Z,95674.38
2022-10-11T08:16:46.413Z,95677.53
2022-10-11T08:19:49.568Z,95677.03
2022-10-11T08:22:52.619Z,95679.69
2022-10-11T08:25:58.623Z,95688.19
2022-10-11T08:29:03.487Z,95682.84
2022-10-11T08:32:06.844Z,95686.31
2022-10-11T08:35:10.206Z,95692.16
2022-10-11T08:38:13.777Z,95683.91
2022-10-11T08:41:37.375Z,95672.19
2022-10-11T08:45:09.400Z,95682.00
2022-10-11T08:48:15.085Z,95680.41
2022-10-11T08:51:22.463Z,95679.84
2022-10-11T08:54:38.349Z,95679.84
2022-10-11T08:57:49.871Z,95677.47
2022-10-11T09:00:55.709Z,95676.38
2022-10-11T09:04:00.170Z,95679.03
2022-10-11T09:07:08.463Z,95679.03
2022-10-11T09:10:34.033Z,95675.31
2022-10-11T09:13:56.361Z,95666.25
2022-10-11T09:17:08.380Z,95672.34
2022-10-11T09:20:25.365Z,95669.19
2022-10-11T09:23:47.936Z,95668.91
2022-10-11T09:26:57.225Z,95667.81
2022-10-11T09:30:05.337Z,95670.50
2022-10-11T09:33:16.544Z,95666.25
2022-10-11T09:36:27.110Z,95670.50
2022-10-11T09:39:32.749Z,95667.81
2022-10-11T09:42:35.750Z,95667.25
2022-10-11T09:45:49.264Z,95664.34
2022-10-11T09:48:54.625Z,95657.16
2022-10-11T09:52:00.652Z,95651.28
2022-10-11T09:55:04.749Z,95654.19
2022-10-11T09:58:31.152Z,95645.41
2022-10-11T10:01:36.234Z,95645.63
2022-10-11T10:04:56.626Z,95649.09
2022-10-11T10:08:05.120Z,95644.84
2022-10-11T10:11:10.642Z,95635.78
2022-10-11T10:14:24.044Z,95629.16
2022-10-11T10:17:28.524Z,95632.31
2022-10-11T10:20:34.640Z,95627.00
2022-10-11T10:23:38.771Z,95631.25
2022-10-11T10:26:41.790Z,95627.00
2022-10-11T10:29:45.529Z,95619.81
2022-10-11T10:32:57.014Z,95625.94
2022-10-11T10:36:06.775Z,95619.53
2022-10-11T10:39:23.254Z,95613.13
2022-10-11T10:42:26.438Z,95623.47
2022-10-11T10:45:40.037Z,95613.34
2022-10-11T10:52:47.699Z,95612.75
2022-10-11T10:55:56.845Z,95599.97
2022-10-11T10:59:15.411Z,95597.56
2022-10-11T11:02:39.676Z,95598.38
2022-10-11T11:05:52.755Z,95601.81
2022-10-11T11:09:12.186Z,95594.66
2022-10-11T11:12:39.625Z,95592.00
2022-10-11T11:15:49.189Z,95594.66
2022-10-11T11:18:59.446Z,95588.25
2022-10-11T11:22:11.142Z,95582.13
2022-10-11T11:25:25.873Z,95585.31
2022-10-11T11:28:46.923Z,95582.94
2022-10-11T11:32:09.654Z,95581.97
2022-10-11T11:35:21.349Z,95577.34
2022-10-11T11:38:35.288Z,95570.41
2022-10-11T11:41:41.918Z,95573.56
2022-10-11T11:44:48.423Z,95559.47
2022-10-11T11:47:55.939Z,95565.28
2022-10-11T11:51:07.352Z,95560.75
2022-10-11T11:54:25.310Z,95559.16
2022-10-11T11:57:40.330Z,95565.06
2022-10-11T12:00:52.802Z,95557.13
2022-10-11T12:03:58.905Z,95555.94
2022-10-11T12:07:22.393Z,95560.97
2022-10-11T12:10:31.154Z,95557.81
2022-10-11T12:13:37.066Z,95558.09
2022-10-11T12:17:07.258Z,95556.22
2022-10-11T12:20:17.880Z,95552.84
2022-10-11T12:23:48.276Z,95560.53
2022-10-11T12:26:56.049Z,95560.25
2022-10-11T12:29:59.082Z,95560.25
2022-10-11T12:33:07.976Z,95556.31
2022-10-11T12:36:35.595Z,95554.97
2022-10-11T12:39:51.852Z,95550.97
2022-10-11T12:43:23.892Z,95537.13
2022-10-11T12:47:25.452Z,95538.22
2022-10-11T12:50:34.818Z,95535.28
2022-10-11T12:54:25.379Z,95540.88
2022-10-11T12:58:00.896Z,95535.06
2022-10-11T13:01:22.096Z,95535.84
2022-10-11T13:04:29.324Z,95538.81
2022-10-11T13:07:33.023Z,95533.47
2022-10-11T13:10:43.633Z,95536.13
2022-10-11T13:13:51.931Z,95545.22
2022-10-11T13:17:05.815Z,95537.81
2022-10-11T13:20:17.208Z,95545.78
2022-10-11T13:23:23.878Z,95537.50
2022-10-11T13:26:28.279Z,95544.72
2022-10-11T13:29:34.666Z,95529.91
2022-10-11T13:32:39.452Z,95540.47
2022-10-11T13:35:42.837Z,95543.13
2022-10-11T13:38:53.742Z,95537.81
2022-10-11T13:41:58.206Z,95538.09
2022-10-11T13:45:01.886Z,95539.16
2022-10-11T13:48:15.138Z,95539.16
2022-10-11T13:51:29.748Z,95542.63
2022-10-11T13:54:59.114Z,95539.97
2022-10-11T13:58:04.288Z,95537.31
2022-10-11T14:01:17.852Z,95533.84
2022-10-11T14:04:26.140Z,95531.97
2022-10-11T14:07:37.436Z,95537.31
2022-10-11T14:10:40.620Z,95541.84
2022-10-11T14:13:45.532Z,95541.03
2022-10-11T14:16:56.920Z,95532.56
2022-10-11T14:20:15.515Z,95532.56
2022-10-11T14:23:18.539Z,95536.00
2022-10-11T14:26:23.044Z,95533.63
2022-10-11T14:29:28.589Z,95539.75
2022-10-11T14:32:34.206Z,95536.31
2022-10-11T14:35:38.832Z,95538.97
2022-10-11T14:38:41.986Z,95526.72
2022-10-11T14:41:45.363Z,95524.63
2022-10-11T14:44:48.503Z,95524.63
2022-10-11T14:47:52.045Z,95531.03
2022-10-11T14:51:01.239Z,95521.19
2022-10-11T14:54:04.251Z,95530.44
2022-10-11T14:57:07.276Z,95529.66
2022-10-11T15:00:17.493Z,95541.09
2022-10-11T15:03:20.519Z,95540.03
2022-10-11T15:06:28.422Z,95540.03
2022-10-11T15:09:31.818Z,95535.78
2022-10-11T15:12:34.858Z,95532.06
2022-10-11T15:15:41.157Z,95537.38
2022-10-11T15:18:50.762Z,95533.63
2022-10-11T15:21:55.204Z,95542.69
2022-10-11T15:25:00.296Z,95541.75
2022-10-11T15:28:03.365Z,95544.91
2022-10-11T15:31:06.504Z,95541.66
2022-10-11T15:34:11.359Z,95543.25
2022-10-11T15:37:15.845Z,95538.72
2022-10-11T15:40:23.502Z,95542.16
2022-10-11T15:43:27.927Z,95540.03
2022-10-11T15:46:31.031Z,95547.22
2022-10-11T15:49:34.024Z,95541.91
2022-10-11T15:52:38.478Z,95552.56
2022-10-11T15:55:43.925Z,95551.75
2022-10-11T15:58:48.072Z,95551.75
2022-10-11T16:01:51.297Z,95561.03
2022-10-11T16:04:54.626Z,95558.69
2022-10-11T16:07:59.315Z,95560.53
2022-10-11T16:11:02.583Z,95565.56
2022-10-11T16:14:06.165Z,95567.16
2022-10-11T16:17:09.155Z,95570.09
2022-10-11T16:20:12.265Z,95569.31
2022-10-11T16:23:16.997Z,95570.53
2022-10-11T16:26:20.035Z,95572.53
2022-10-11T16:29:24.262Z,95567.16
2022-10-11T16:32:28.190Z,95574.78
2022-10-11T16:35:32.801Z,95572.03
2022-10-11T16:38:37.287Z,95578.88
2022-10-11T16:41:40.354Z,95573.56
2022-10-11T16:44:43.337Z,95580.75
2022-10-11T16:47:46.510Z,95584.72
2022-10-11T16:50:49.541Z,95578.81
2022-10-11T16:53:54.471Z,95579.31
2022-10-11T16:56:58.082Z,95578.22
2022-10-11T17:00:01.357Z,95578.38
2022-10-11T17:03:04.366Z,95575.53
2022-10-11T17:06:08.793Z,95576.31
2022-10-11T17:09:14.236Z,95586.44
2022-10-11T17:12:19.784Z,95585.44
2022-10-11T17:15:23.216Z,95584.13
2022-10-11T17:18:26.259Z,95583.06
2022-10-11T17:21:29.257Z,95590.97
2022-10-11T17:24:35.894Z,95587.75
2022-10-11T17:27:38.978Z,95596.13
2022-10-11T17:30:42.289Z,95587.44
2022-10-11T17:33:45.502Z,95590.47
2022-10-11T17:36:49.227Z,95589.06
2022-10-11T17:39:53.929Z,95594.41
2022-10-11T17:42:57.089Z,95591.66
2022-10-11T17:46:02.110Z,95587.59
2022-10-11T17:49:08.139Z,95592.38
2022-10-11T17:52:11.327Z,95598.66
2022-10-11T17:55:16.798Z,95602.13
2022-10-11T17:58:19.970Z,95599.19
2022-10-11T18:01:24.632Z,95599.84
2022-10-11T18:04:29.950Z,95607.72
2022-10-11T18:07:33.062Z,95597.59
2022-10-11T18:10:38.382Z,95610.16
2022-10-11T18:13:45.989Z,95606.38
2022-10-11T18:16:49.067Z,95599.28
2022-10-11T18:19:52.382Z,95598.31
2022-10-11T18:23:00.535Z,95603.66
2022-10-11T18:26:11.841Z,95602.91
2022-10-11T18:29:17.179Z,95601.75
2022-10-11T18:32:21.079Z,95603.22
2022-10-11T18:35:24.139Z,95608.44
2022-10-11T18:38:27.326Z,95602.63
2022-10-11T18:41:32.977Z,95609.72
2022-10-11T18:44:36.017Z,95609.09
2022-10-11T18:47:39.203Z,95610.22
2022-10-11T18:50:42.280Z,95616.97
2022-10-11T18:53:46.399Z,95605.16
2022-10-11T18:56:50.981Z,95610.69
2022-10-11T18:59:54.447Z,95612.41
2022-10-11T19:02:57.450Z,95616.88
2022-10-11T19:06:03.962Z,95615.94
2022-10-11T19:09:09.148Z,95611.19
2022-10-11T19:12:14.308Z,95614.97
2022-10-11T19:15:17.727Z,95615.28
2022-10-11T19:18:20.972Z,95615.13
2022-10-11T19:21:24.404Z,95621.97
2022-10-11T19:24:29.846Z,95616.56
2022-10-11T19:27:34.290Z,95618.19
2022-10-11T19:30:37.408Z,95625.28
2022-10-11T19:33:40.741Z,95625.19
2022-10-11T19:36:44.277Z,95620.03
2022-10-11T19:39:47.405Z,95625.44
2022-10-11T19:42:51.886Z,95628.28
2022-10-11T19:46:01.393Z,95628.13
2022-10-11T19:49:04.566Z,95634.16
2022-10-11T19:52:09.623Z,95633.03
2022-10-11T19:55:12.711Z,95631.16
2022-10-11T19:58:17.549Z,95630.03
2022-10-11T20:01:22.638Z,95638.72
2022-10-11T20:07:49.328Z,95630.50
2022-10-11T20:10:54.426Z,95633.50
2022-10-11T20:13:59.047Z,95637.28
2022-10-11T20:17:02.284Z,95640.81
2022-10-11T20:20:05.813Z,95643.03
2022-10-11T20:23:08.854Z,95635.78
2022-10-11T20:26:13.970Z,95636.25
2022-10-11T20:29:18.460Z,95632.13
2022-10-11T20:32:21.463Z,95632.50
2022-10-11T20:35:24.487Z,95633.00
2022-10-11T20:38:27.771Z,95633.69
2022-10-11T20:41:32.920Z,95640.00
2022-10-11T20:44:37.634Z,95633.19
2022-10-11T20:47:40.707Z,95633.50
2022-10-11T20:50:45.672Z,95630.44
2022-10-11T20:53:48.711Z,95637.41
2022-10-11T20:56:51.740Z,95631.28
2022-10-11T20:59:56.145Z,95634.06
2022-10-11T21:02:59.115Z,95640.81
2022-10-11T21:06:02.186Z,95640.31
2022-10-11T21:09:05.600Z,95637.25
2022-10-11T21:12:08.850Z,95643.69
2022-10-11T21:15:13.422Z,95641.38
2022-10-11T21:18:16.842Z,95640.31
2022-10-11T21:21:20.283Z,95641.66
2022-10-11T21:24:23.704Z,95635.84
2022-10-11T21:27:26.934Z,95632.19
2022-10-11T21:30:32.170Z,95632.28
2022-10-11T21:33:36.054Z,95619.53
2022-10-11T21:36:39.136Z,95627.00
2022-10-11T21:39:42.162Z,95625.41
2022-10-11T21:42:45.244Z,95617.81
2022-10-11T21:45:49.868Z,95623.94
2022-10-11T21:48:52.963Z,95621.25
2022-10-11T21:51:56.519Z,95615.53
2022-10-11T21:54:59.488Z,95626.38
2022-10-11T21:58:02.586Z,95630.72
2022-10-11T22:01:07.537Z,95632.38
2022-10-11T22:04:12.024Z,95630.19
2022-10-11T22:07:15.025Z,95619.84
2022-10-11T22:10:18.192Z,95615.88
2022-10-11T22:13:21.282Z,95623.59
2022-10-11T22:16:25.710Z,95620.91
2022-10-11T22:19:28.705Z,95618.84
2022-10-11T22:22:31.766Z,95624.16
2022-10-11T22:25:36.124Z,95625.53
2022-10-11T22:28:39.329Z,95623.16
2022-10-11T22:31:43.749Z,95616.25
2022-10-11T22:34:46.706Z,95614.97
2022-10-11T22:37:50.406Z,95616.84
2022-10-11T22:40:53.787Z,95621.66
2022-10-11T22:43:56.794Z,95624.31
2022-10-11T22:47:01.303Z,95629.13
2022-10-11T22:50:04.811Z,95632.81
2022-10-11T22:53:08.346Z,95632.59
2022-10-11T22:56:11.685Z,95625.66
2022-10-11T22:59:14.739Z,95635.81
2022-10-11T23:02:19.174Z,95631.06
2022-10-11T23:05:22.208Z,95640.94
2022-10-11T23:08:25.690Z,95638.34
2022-10-11T23:11:28.935Z,95644.19
2022-10-11T23:14:31.924Z,95639.63
2022-10-11T23:17:36.572Z,95638.34
2022-10-11T23:20:40.506Z,95634.91
2022-10-11T23:23:43.527Z,95633.03
2022-10-11T23:26:46.518Z,95629.84
2022-10-11T23:29:49.543Z,95637.06
2022-10-11T23:32:54.004Z,95638.94
2022-10-11T23:35:57.020Z,95633.84
2022-10-11T23:39:00.678Z,95638.41
2022-10-11T23:42:03.846Z,95638.41
2022-10-11T23:45:07.842Z,95636.81
2022-10-11T23:48:12.956Z,95630.50
2022-10-11T23:51:16.600Z,95637.91
2022-10-11T23:54:19.625Z,95629.13
2022-10-11T23:57:22.676Z,95633.16
